createdAt,value
2022-09-14T00:01:44.520Z,1.50
2022-09-14T00:04:17.341Z,1.40
2022-09-14T00:06:47.697Z,1.10
2022-09-14T00:09:20.499Z,1.20
2022-09-14T00:11:50.682Z,1.00
2022-09-14T00:14:20.233Z,1.00
2022-09-14T00:16:49.002Z,0.70
2022-09-14T00:19:26.459Z,0.60
2022-09-14T00:22:00.463Z,0.70
2022-09-14T00:24:31.015Z,1.00
2022-09-14T00:26:58.971Z,1.10
2022-09-14T00:29:26.788Z,1.00
2022-09-14T00:31:54.832Z,0.90
2022-09-14T00:34:23.714Z,0.90
2022-09-14T00:36:52.200Z,0.70
2022-09-14T00:39:24.338Z,0.90
2022-09-14T00:41:53.222Z,0.90
2022-09-14T00:44:21.316Z,1.10
2022-09-14T00:46:55.180Z,0.90
2022-09-14T00:49:31.933Z,0.70
2022-09-14T00:52:09.534Z,0.80
2022-09-14T00:54:46.649Z,0.70
2022-09-14T00:57:17.431Z,0.70
2022-09-14T00:59:51.304Z,1.00
2022-09-14T01:02:22.516Z,0.80
2022-09-14T01:04:51.526Z,0.80
2022-09-14T01:07:45.222Z,0.70
2022-09-14T01:10:41.556Z,0.80
2022-09-14T01:13:48.936Z,0.70
2022-09-14T01:16:42.692Z,0.90
2022-09-14T01:19:39.330Z,0.90
2022-09-14T01:22:21.403Z,0.80
2022-09-14T01:25:01.677Z,0.60
2022-09-14T01:27:41.097Z,0.70
2022-09-14T01:30:13.752Z,0.70
2022-09-14T01:32:54.875Z,0.60
2022-09-14T01:35:44.825Z,0.40
2022-09-14T01:38:52.048Z,0.60
2022-09-14T01:41:29.364Z,0.30
2022-09-14T01:44:30.567Z,0.30
2022-09-14T01:47:34.729Z,0.40
2022-09-14T01:50:39.735Z,0.40
2022-09-14T01:53:19.198Z,0.70
2022-09-14T01:56:03.418Z,0.40
2022-09-14T01:58:45.273Z,0.50
2022-09-14T02:01:22.041Z,0.60
2022-09-14T02:03:58.026Z,0.40
2022-09-14T02:06:39.249Z,0.40
2022-09-14T02:09:11.538Z,0.50
2022-09-14T02:11:40.577Z,0.40
2022-09-14T02:14:08.813Z,0.50
2022-09-14T02:16:36.808Z,0.50
2022-09-14T02:19:04.905Z,0.50
2022-09-14T02:21:34.405Z,0.50
2022-09-14T02:24:03.639Z,0.60
2022-09-14T02:26:32.733Z,0.60
2022-09-14T02:29:00.902Z,0.70
2022-09-14T02:31:57.803Z,0.70
2022-09-14T02:35:04.994Z,0.60
2022-09-14T02:38:08.316Z,0.60
2022-09-14T02:41:18.770Z,0.60
2022-09-14T02:44:10.654Z,0.40
2022-09-14T02:47:05.689Z,0.40
2022-09-14T02:49:48.775Z,0.60
2022-09-14T02:52:50.740Z,0.70
2022-09-14T02:55:23.009Z,0.90
2022-09-14T02:58:08.480Z,0.60
2022-09-14T03:00:46.975Z,0.70
2022-09-14T03:03:19.375Z,0.70
2022-09-14T03:05:47.893Z,0.60
2022-09-14T03:08:15.790Z,1.00
2022-09-14T03:10:44.777Z,0.60
2022-09-14T03:13:12.745Z,0.70
2022-09-14T03:15:40.666Z,0.90
2022-09-14T03:18:14.098Z,0.70
2022-09-14T03:20:43.698Z,0.50
2022-09-14T03:23:13.232Z,0.70
2022-09-14T03:25:44.535Z,0.50
2022-09-14T03:28:13.077Z,0.90
2022-09-14T03:30:41.105Z,0.50
2022-09-14T03:33:08.892Z,0.60
2022-09-14T03:35:36.590Z,0.70
2022-09-14T03:38:04.281Z,0.50
2022-09-14T03:40:32.577Z,0.80
2022-09-14T03:43:00.313Z,0.70
2022-09-14T03:45:27.948Z,0.60
2022-09-14T03:47:55.643Z,0.60
2022-09-14T03:50:23.302Z,0.70
2022-09-14T03:52:51.024Z,0.70
2022-09-14T03:55:19.486Z,0.90
2022-09-14T03:57:47.270Z,0.60
2022-09-14T04:00:15.436Z,0.50
2022-09-14T04:02:44.031Z,0.50
2022-09-14T04:05:12.119Z,0.50
2022-09-14T04:07:40.129Z,0.60
2022-09-14T04:10:09.228Z,0.70
2022-09-14T04:12:38.650Z,0.50
2022-09-14T04:15:08.189Z,0.30
2022-09-14T04:17:36.778Z,0.50
2022-09-14T04:20:05.708Z,0.50
2022-09-14T04:22:34.160Z,0.60
2022-09-14T04:25:02.805Z,0.40
2022-09-14T04:27:31.449Z,0.40
2022-09-14T04:29:59.108Z,0.60
2022-09-14T04:32:29.625Z,0.40
2022-09-14T04:35:00.760Z,0.60
2022-09-14T04:37:32.493Z,0.60
2022-09-14T04:40:00.416Z,0.50
2022-09-14T04:42:29.932Z,0.80
2022-09-14T04:44:58.040Z,0.60
2022-09-14T04:47:25.989Z,0.60
2022-09-14T04:49:54.277Z,0.70
2022-09-14T04:52:23.553Z,0.90
2022-09-14T04:54:51.265Z,0.60
2022-09-14T04:57:20.391Z,1.10
2022-09-14T04:59:50.811Z,0.90
2022-09-14T05:02:19.633Z,0.80
2022-09-14T05:04:47.805Z,0.60
2022-09-14T05:07:16.013Z,1.10
2022-09-14T05:09:44.057Z,0.60
2022-09-14T05:12:11.772Z,0.70
2022-09-14T05:14:39.511Z,0.70
2022-09-14T05:17:07.484Z,0.70
2022-09-14T05:19:35.149Z,0.80
2022-09-14T05:22:03.340Z,0.80
2022-09-14T05:24:31.337Z,0.70
2022-09-14T05:27:01.636Z,0.90
2022-09-14T05:29:31.985Z,0.60
2022-09-14T05:32:00.352Z,0.70
2022-09-14T05:34:28.037Z,0.80
2022-09-14T05:36:55.807Z,0.50
2022-09-14T05:39:25.224Z,0.80
2022-09-14T05:41:52.993Z,0.80
2022-09-14T05:44:21.166Z,0.90
2022-09-14T05:46:49.912Z,0.70
2022-09-14T05:49:18.233Z,0.90
2022-09-14T05:51:45.993Z,0.70
2022-09-14T05:54:13.749Z,0.60
2022-09-14T05:56:41.482Z,0.80
2022-09-14T05:59:10.936Z,0.80
2022-09-14T06:01:38.712Z,0.70
2022-09-14T06:04:06.614Z,0.90
2022-09-14T06:06:34.736Z,0.90
2022-09-14T06:09:03.886Z,0.70
2022-09-14T06:11:36.450Z,0.70
2022-09-14T06:14:05.679Z,0.90
2022-09-14T06:16:34.892Z,0.80
2022-09-14T06:19:03.327Z,0.90
2022-09-14T06:21:34.724Z,1.10
2022-09-14T06:24:03.791Z,0.80
2022-09-14T06:26:31.714Z,1.00
2022-09-14T06:28:59.532Z,0.90
2022-09-14T06:31:27.299Z,0.90
2022-09-14T06:33:55.097Z,0.80
2022-09-14T06:36:27.152Z,0.90
2022-09-14T06:38:56.811Z,0.90
2022-09-14T06:41:32.822Z,0.50
2022-09-14T06:44:01.924Z,0.80
2022-09-14T06:46:33.134Z,0.80
2022-09-14T06:49:13.772Z,0.90
2022-09-14T06:51:46.544Z,1.00
2022-09-14T06:54:17.325Z,0.80
2022-09-14T06:56:46.751Z,0.90
2022-09-14T06:59:18.445Z,1.00
2022-09-14T07:01:47.484Z,0.70
2022-09-14T07:04:16.228Z,1.30
2022-09-14T07:06:49.849Z,0.80
2022-09-14T07:09:19.731Z,0.70
2022-09-14T07:11:49.215Z,1.00
2022-09-14T07:14:16.951Z,1.00
2022-09-14T07:16:44.671Z,0.80
2022-09-14T07:19:14.770Z,0.80
2022-09-14T07:21:44.905Z,0.90
2022-09-14T07:24:15.233Z,0.70
2022-09-14T07:26:43.344Z,0.70
2022-09-14T07:29:16.194Z,0.90
2022-09-14T07:31:50.644Z,0.80
2022-09-14T07:34:19.875Z,1.20
2022-09-14T07:36:47.956Z,0.60
2022-09-14T07:39:18.098Z,0.70
2022-09-14T07:41:46.809Z,1.00
2022-09-14T07:44:17.295Z,0.60
2022-09-14T07:46:47.287Z,0.80
2022-09-14T07:49:17.538Z,0.50
2022-09-14T07:51:46.094Z,0.70
2022-09-14T07:54:18.024Z,0.70
2022-09-14T07:56:46.316Z,0.70
2022-09-14T07:59:36.025Z,0.50
2022-09-14T08:02:08.146Z,0.90
2022-09-14T08:04:36.551Z,0.60
2022-09-14T08:07:06.025Z,0.90
2022-09-14T08:09:34.307Z,0.60
2022-09-14T08:12:03.347Z,0.60
2022-09-14T08:14:31.237Z,0.70
2022-09-14T08:17:00.696Z,0.70
2022-09-14T08:19:29.013Z,0.80
2022-09-14T08:21:57.311Z,0.80
2022-09-14T08:24:25.614Z,0.60
2022-09-14T08:26:53.953Z,0.70
2022-09-14T08:29:21.667Z,0.60
2022-09-14T08:31:52.203Z,0.50
2022-09-14T08:34:20.555Z,0.70
2022-09-14T08:36:49.793Z,0.60
2022-09-14T08:39:18.695Z,1.10
2022-09-14T08:41:55.644Z,0.60
2022-09-14T08:44:47.020Z,0.70
2022-09-14T08:47:28.105Z,0.60
2022-09-14T08:50:20.288Z,0.60
2022-09-14T08:52:54.723Z,0.70
2022-09-14T08:55:45.197Z,0.70
2022-09-14T08:58:48.199Z,0.60
2022-09-14T09:01:43.915Z,0.60
2022-09-14T09:04:55.868Z,0.50
2022-09-14T09:07:44.547Z,0.40
2022-09-14T09:10:13.925Z,0.40
2022-09-14T09:12:55.946Z,0.30
2022-09-14T09:15:54.632Z,0.20
2022-09-14T09:18:38.789Z,0.40
2022-09-14T09:21:24.143Z,0.30
2022-09-14T09:23:58.998Z,0.20
2022-09-14T09:26:31.657Z,0.20
2022-09-14T09:29:03.186Z,0.30
2022-09-14T09:31:39.577Z,0.10
2022-09-14T09:34:07.489Z,0.20
2022-09-14T09:36:40.888Z,0.20
2022-09-14T09:39:09.037Z,0.20
2022-09-14T09:41:45.487Z,0.20
2022-09-14T09:44:14.239Z,0.20
2022-09-14T09:46:56.224Z,0.10
2022-09-14T09:49:36.002Z,0.20
2022-09-14T09:52:13.777Z,0.20
2022-09-14T09:54:50.406Z,0.20
2022-09-14T09:57:37.429Z,0.20
2022-09-14T10:00:22.115Z,0.10
2022-09-14T10:02:50.959Z,0.10
2022-09-14T10:05:34.531Z,0.20
2022-09-14T10:08:11.241Z,0.20
2022-09-14T10:10:43.163Z,0.20
2022-09-14T10:13:36.456Z,0.10
2022-09-14T10:16:18.184Z,0.20
2022-09-14T10:18:49.869Z,0.30
2022-09-14T10:21:21.741Z,0.10
2022-09-14T10:24:19.363Z,0.20
2022-09-14T10:26:47.093Z,0.10
2022-09-14T10:29:44.247Z,0.20
2022-09-14T10:32:23.585Z,0.20
2022-09-14T10:34:51.624Z,0.20
2022-09-14T10:38:16.293Z,0.10
2022-09-14T10:40:56.888Z,0.20
2022-09-14T10:43:52.449Z,0.10
2022-09-14T10:46:40.275Z,0.10
2022-09-14T10:49:48.558Z,0.20
2022-09-14T10:53:12.458Z,0.20
2022-09-14T10:56:26.922Z,0.20
2022-09-14T10:59:19.518Z,0.10
2022-09-14T11:01:53.092Z,0.20
2022-09-14T11:05:14.075Z,0.20
2022-09-14T11:08:21.277Z,0.10
2022-09-14T11:12:08.106Z,0.10
2022-09-14T11:15:05.487Z,0.20
2022-09-14T11:18:32.313Z,0.20
2022-09-14T11:21:18.148Z,0.10
2022-09-14T11:23:57.877Z,0.20
2022-09-14T11:26:42.499Z,0.10
2022-09-14T11:29:23.737Z,0.20
2022-09-14T11:32:23.404Z,0.20
2022-09-14T11:35:14.641Z,0.10
2022-09-14T11:38:15.221Z,0.10
2022-09-14T11:41:29.805Z,0.10
2022-09-14T11:44:05.927Z,0.20
2022-09-14T11:46:49.461Z,0.10
2022-09-14T11:52:12.867Z,0.10
2022-09-14T11:54:46.115Z,0.10
2022-09-14T11:57:21.395Z,0.10
2022-09-14T12:00:08.208Z,0.10
2022-09-14T12:02:36.960Z,0.20
2022-09-14T12:05:05.063Z,0.10
2022-09-14T12:07:47.711Z,0.10
2022-09-14T12:10:15.956Z,0.10
2022-09-14T12:13:05.979Z,0.10
2022-09-14T12:15:37.417Z,0.10
2022-09-14T12:18:11.108Z,0.10
2022-09-14T12:20:52.964Z,0.00
2022-09-14T12:23:38.940Z,0.20
2022-09-14T12:26:06.864Z,0.10
2022-09-14T12:28:35.390Z,0.10
2022-09-14T12:31:03.175Z,0.10
2022-09-14T12:33:36.474Z,0.20
2022-09-14T12:36:37.654Z,0.20
2022-09-14T12:39:25.889Z,0.10
2022-09-14T12:41:53.664Z,0.20
2022-09-14T12:44:39.272Z,0.10
2022-09-14T12:47:25.224Z,0.20
2022-09-14T12:49:58.949Z,0.00
2022-09-14T12:55:38.512Z,0.20
2022-09-14T12:58:51.073Z,0.20
2022-09-14T13:01:36.437Z,0.10
2022-09-14T13:04:12.413Z,0.20
2022-09-14T13:06:45.997Z,0.10
2022-09-14T13:09:27.469Z,0.20
2022-09-14T13:12:07.501Z,0.10
2022-09-14T13:14:56.443Z,0.20
2022-09-14T13:17:26.520Z,0.20
2022-09-14T13:19:58.691Z,0.10
2022-09-14T13:22:31.753Z,0.00
2022-09-14T13:25:03.934Z,0.20
2022-09-14T13:27:35.956Z,0.20
2022-09-14T13:30:22.111Z,0.20
2022-09-14T13:32:54.093Z,0.30
2022-09-14T13:35:48.865Z,0.30
2022-09-14T13:38:27.220Z,0.20
2022-09-14T13:41:08.648Z,0.10
2022-09-14T13:43:37.330Z,0.20
2022-09-14T13:46:11.623Z,0.10
2022-09-14T13:48:42.907Z,0.20
2022-09-14T13:51:15.784Z,0.10
2022-09-14T13:53:46.173Z,0.20
2022-09-14T13:56:31.225Z,0.20
2022-09-14T13:59:09.179Z,0.20
2022-09-14T14:01:54.012Z,0.20
2022-09-14T14:04:37.097Z,0.30
2022-09-14T14:07:31.824Z,0.20
2022-09-14T14:10:03.652Z,0.30
2022-09-14T14:12:39.439Z,0.30
2022-09-14T14:15:27.193Z,0.10
2022-09-14T14:17:55.119Z,0.10
2022-09-14T14:20:38.908Z,0.30
2022-09-14T14:23:06.521Z,0.20
2022-09-14T14:26:07.322Z,0.20
2022-09-14T14:28:35.281Z,0.20
2022-09-14T14:31:08.499Z,0.20
2022-09-14T14:33:49.788Z,0.20
2022-09-14T14:36:19.453Z,0.20
2022-09-14T14:38:48.916Z,0.10
2022-09-14T14:41:21.357Z,0.30
2022-09-14T14:43:50.944Z,0.40
2022-09-14T14:46:18.979Z,0.20
2022-09-14T14:48:46.810Z,0.30
2022-09-14T14:51:15.822Z,0.30
2022-09-14T14:53:43.861Z,0.20
2022-09-14T14:56:14.149Z,0.20
2022-09-14T14:58:47.649Z,0.30
2022-09-14T15:01:16.644Z,0.20
2022-09-14T15:03:44.605Z,0.40
2022-09-14T15:06:23.857Z,0.30
2022-09-14T15:08:58.145Z,0.40
2022-09-14T15:11:25.900Z,0.50
2022-09-14T15:13:53.718Z,0.50
2022-09-14T15:16:21.824Z,0.40
2022-09-14T15:18:49.785Z,0.30
2022-09-14T15:21:17.511Z,0.20
2022-09-14T15:23:45.184Z,0.20
2022-09-14T15:26:13.128Z,0.10
2022-09-14T15:28:40.874Z,0.30
2022-09-14T15:31:08.536Z,0.20
2022-09-14T15:33:36.366Z,0.20
2022-09-14T15:36:04.600Z,0.30
2022-09-14T15:38:32.900Z,0.20
2022-09-14T15:41:00.745Z,0.20
2022-09-14T15:43:28.970Z,0.30
2022-09-14T15:46:03.054Z,0.40
2022-09-14T15:48:30.733Z,0.40
2022-09-14T15:51:00.865Z,0.20
2022-09-14T15:53:28.618Z,0.20
2022-09-14T15:55:56.314Z,0.20
2022-09-14T15:58:23.973Z,0.20
2022-09-14T16:00:52.198Z,0.20
2022-09-14T16:03:19.925Z,0.20
2022-09-14T16:05:48.868Z,0.20
2022-09-14T16:08:19.173Z,0.40
2022-09-14T16:10:57.219Z,0.30
2022-09-14T16:13:24.989Z,0.20
2022-09-14T16:16:04.150Z,0.30
2022-09-14T16:18:32.644Z,0.20
2022-09-14T16:21:05.035Z,0.40
2022-09-14T16:23:36.537Z,0.30
2022-09-14T16:26:23.324Z,0.50
2022-09-14T16:28:53.459Z,0.80
2022-09-14T16:31:26.667Z,0.60
2022-09-14T16:34:00.980Z,0.60
2022-09-14T16:36:34.037Z,0.50
2022-09-14T16:39:07.028Z,0.30
2022-09-14T16:41:38.341Z,0.30
2022-09-14T16:44:07.489Z,0.40
2022-09-14T16:46:37.609Z,0.40
2022-09-14T16:49:07.973Z,0.50
2022-09-14T16:51:36.194Z,0.30
2022-09-14T16:54:06.845Z,0.50
2022-09-14T16:56:38.957Z,0.50
2022-09-14T16:59:08.489Z,0.50
2022-09-14T17:01:44.047Z,0.60
2022-09-14T17:04:15.971Z,0.50
2022-09-14T17:06:46.266Z,0.50
2022-09-14T17:09:21.098Z,0.90
2022-09-14T17:11:51.538Z,0.60
2022-09-14T17:14:24.346Z,0.70
2022-09-14T17:16:53.243Z,0.50
2022-09-14T17:19:22.156Z,0.60
2022-09-14T17:21:49.960Z,0.80
2022-09-14T17:24:20.055Z,0.80
2022-09-14T17:26:48.882Z,1.40
2022-09-14T17:29:17.492Z,1.10
2022-09-14T17:31:46.878Z,1.00
2022-09-14T17:34:17.469Z,1.00
2022-09-14T17:36:46.277Z,0.70
2022-09-14T17:39:15.592Z,0.80
2022-09-14T17:41:44.336Z,0.70
2022-09-14T17:44:14.317Z,0.70
2022-09-14T17:46:53.025Z,0.70
2022-09-14T17:49:23.533Z,0.80
2022-09-14T17:51:52.400Z,0.80
2022-09-14T17:54:22.455Z,0.90
2022-09-14T17:56:51.742Z,0.70
2022-09-14T17:59:21.354Z,0.90
2022-09-14T18:01:52.299Z,1.00
2022-09-14T18:04:20.514Z,0.60
2022-09-14T18:06:50.263Z,0.90
2022-09-14T18:09:22.365Z,1.10
2022-09-14T18:11:51.595Z,1.00
2022-09-14T18:14:19.825Z,0.90
2022-09-14T18:16:47.905Z,0.60
2022-09-14T18:19:16.498Z,0.70
2022-09-14T18:21:46.796Z,0.80
2022-09-14T18:24:18.768Z,0.90
2022-09-14T18:26:51.043Z,1.90
2022-09-14T18:29:22.047Z,1.50
2022-09-14T18:31:54.038Z,2.20
2022-09-14T18:34:28.280Z,2.40
2022-09-14T18:37:01.314Z,2.50
2022-09-14T18:39:29.025Z,2.00
2022-09-14T18:41:56.700Z,1.80
2022-09-14T18:44:24.520Z,2.90
2022-09-14T18:46:52.554Z,2.50
2022-09-14T18:49:20.425Z,1.90
2022-09-14T18:51:48.102Z,1.40
2022-09-14T18:54:16.274Z,1.20
2022-09-14T18:56:44.501Z,0.70
2022-09-14T18:59:15.407Z,1.30
2022-09-14T19:01:44.147Z,0.50
2022-09-14T19:04:12.723Z,0.40
2022-09-14T19:06:42.003Z,0.70
2022-09-14T19:09:13.841Z,2.30
2022-09-14T19:11:42.242Z,2.40
2022-09-14T19:14:12.994Z,1.10
2022-09-14T19:16:43.633Z,2.20
2022-09-14T19:19:15.230Z,0.80
2022-09-14T19:21:45.393Z,0.90
2022-09-14T19:24:16.511Z,0.70
2022-09-14T19:26:51.056Z,0.70
2022-09-14T19:29:26.343Z,0.80
2022-09-14T19:31:55.214Z,11.10
2022-09-14T19:34:26.374Z,1.70
2022-09-14T19:36:55.536Z,11.90
2022-09-14T19:39:25.452Z,16.80
2022-09-14T19:41:53.811Z,63.50
2022-09-14T19:44:23.361Z,61.20
2022-09-14T19:46:53.442Z,27.60
2022-09-14T19:49:25.164Z,38.90
2022-09-14T19:51:54.318Z,65.50
2022-09-14T19:54:23.173Z,32.30
2022-09-14T19:56:51.490Z,8.10
2022-09-14T19:59:19.570Z,10.20
2022-09-14T20:01:47.828Z,5.00
2022-09-14T20:04:18.191Z,4.40
2022-09-14T20:06:48.111Z,2.60
2022-09-14T20:09:22.326Z,1.00
2022-09-14T20:11:53.241Z,1.50
2022-09-14T20:14:25.475Z,1.20
2022-09-14T20:16:57.514Z,1.30
2022-09-14T20:19:29.117Z,1.20
2022-09-14T20:21:57.058Z,1.10
2022-09-14T20:24:28.519Z,0.90
2022-09-14T20:26:59.740Z,0.90
2022-09-14T20:29:31.356Z,0.80
2022-09-14T20:32:00.167Z,0.60
2022-09-14T20:34:29.109Z,0.70
2022-09-14T20:37:01.137Z,0.90
2022-09-14T20:39:30.667Z,1.10
2022-09-14T20:41:58.566Z,1.10
2022-09-14T20:44:26.326Z,0.90
2022-09-14T20:46:54.024Z,0.80
2022-09-14T20:49:23.838Z,0.80
2022-09-14T20:51:52.925Z,0.70
2022-09-14T20:54:22.493Z,0.70
2022-09-14T20:56:50.892Z,0.70
2022-09-14T20:59:22.256Z,0.60
2022-09-14T21:01:53.195Z,0.90
2022-09-14T21:04:24.296Z,0.90
2022-09-14T21:06:56.058Z,0.80
2022-09-14T21:09:26.814Z,0.70
2022-09-14T21:11:55.246Z,0.70
2022-09-14T21:14:23.641Z,0.80
2022-09-14T21:16:56.950Z,0.80
2022-09-14T21:19:28.510Z,0.90
2022-09-14T21:21:57.858Z,0.90
2022-09-14T21:24:26.248Z,0.60
2022-09-14T21:26:57.133Z,0.70
2022-09-14T21:29:24.967Z,0.90
2022-09-14T21:31:53.217Z,0.70
2022-09-14T21:34:22.336Z,0.60
2022-09-14T21:36:52.600Z,0.70
2022-09-14T21:39:25.063Z,0.80
2022-09-14T21:41:58.848Z,0.60
2022-09-14T21:44:33.055Z,0.70
2022-09-14T21:47:05.261Z,0.80
2022-09-14T21:49:33.007Z,0.60
2022-09-14T21:52:01.323Z,0.70
2022-09-14T21:54:29.129Z,0.70
2022-09-14T21:56:57.263Z,0.90
2022-09-14T21:59:25.081Z,0.90
2022-09-14T22:01:53.236Z,0.90
2022-09-14T22:04:25.168Z,0.80
2022-09-14T22:06:53.563Z,0.70
2022-09-14T22:09:26.049Z,0.60
2022-09-14T22:11:55.573Z,0.70
2022-09-14T22:14:28.642Z,0.70
2022-09-14T22:16:57.105Z,0.70
2022-09-14T22:19:30.481Z,0.60
2022-09-14T22:21:59.424Z,0.70
2022-09-14T22:24:37.748Z,1.00
2022-09-14T22:27:10.752Z,0.80
2022-09-14T22:29:40.936Z,0.90
2022-09-14T22:32:12.060Z,0.70
2022-09-14T22:34:48.833Z,0.80
2022-09-14T22:37:17.703Z,0.60
2022-09-14T22:39:45.626Z,0.70
2022-09-14T22:42:13.467Z,0.70
2022-09-14T22:44:41.209Z,0.80
2022-09-14T22:47:08.912Z,0.70
2022-09-14T22:49:36.854Z,0.60
2022-09-14T22:52:04.655Z,0.90
2022-09-14T22:54:32.493Z,0.80
2022-09-14T22:57:00.259Z,0.70
2022-09-14T22:59:28.073Z,0.80
2022-09-14T23:01:55.768Z,0.70
2022-09-14T23:04:23.503Z,0.50
2022-09-14T23:06:51.230Z,0.70
2022-09-14T23:09:22.231Z,0.60
2022-09-14T23:11:50.628Z,0.50
2022-09-14T23:14:18.663Z,0.70
2022-09-14T23:16:46.648Z,0.60
2022-09-14T23:19:18.426Z,0.60
2022-09-14T23:21:46.414Z,0.70
2022-09-14T23:24:14.869Z,0.60
2022-09-14T23:26:43.324Z,0.60
2022-09-14T23:29:17.137Z,1.00
2022-09-14T23:31:46.875Z,0.60
2022-09-14T23:34:14.878Z,0.70
2022-09-14T23:36:42.780Z,0.70
2022-09-14T23:39:10.948Z,0.70
2022-09-14T23:41:39.776Z,0.80
2022-09-14T23:44:12.897Z,0.90
2022-09-14T23:46:41.516Z,0.80
2022-09-14T23:49:13.991Z,0.80
2022-09-14T23:51:43.316Z,0.90
2022-09-14T23:54:12.447Z,0.80
2022-09-14T23:56:40.270Z,0.60
2022-09-14T23:59:12.831Z,1.00
